sensor_id;sensor_type;location;lat;lon;timestamp;P1;durP1;ratioP1;P2;durP2;ratioP2
41219;SDS011;26951;47.338;9.196;2023-09-18T00:00:00;12.70;;;3.50;;
41219;SDS011;26951;47.338;9.196;2023-09-18T00:02:44;9.68;;;2.65;;
41219;SDS011;26951;47.338;9.196;2023-09-18T00:05:28;9.85;;;3.05;;
41219;SDS011;26951;47.338;9.196;2023-09-18T00:08:13;12.60;;;3.47;;
41219;SDS011;26951;47.338;9.196;2023-09-18T00:10:57;11.77;;;3.80;;
41219;SDS011;26951;47.338;9.196;2023-09-18T00:13:43;8.65;;;2.75;;
41219;SDS011;26951;47.338;9.196;2023-09-18T00:16:28;7.40;;;2.75;;
41219;SDS011;26951;47.338;9.196;2023-09-18T00:19:12;11.43;;;3.58;;
41219;SDS011;26951;47.338;9.196;2023-09-18T00:21:56;9.50;;;2.80;;
41219;SDS011;26951;47.338;9.196;2023-09-18T00:24:44;7.32;;;3.35;;
41219;SDS011;26951;47.338;9.196;2023-09-18T00:27:28;13.05;;;3.42;;
41219;SDS011;26951;47.338;9.196;2023-09-18T00:30:13;7.18;;;3.10;;
41219;SDS011;26951;47.338;9.196;2023-09-18T00:32:58;7.77;;;3.40;;
41219;SDS011;26951;47.338;9.196;2023-09-18T00:35:48;7.90;;;3.45;;
41219;SDS011;26951;47.338;9.196;2023-09-18T00:38:34;13.48;;;3.00;;
41219;SDS011;26951;47.338;9.196;2023-09-18T00:41:18;7.20;;;2.72;;
41219;SDS011;26951;47.338;9.196;2023-09-18T00:44:01;11.85;;;3.50;;
41219;SDS011;26951;47.338;9.196;2023-09-18T00:46:46;8.50;;;3.10;;
41219;SDS011;26951;47.338;9.196;2023-09-18T00:49:32;11.75;;;3.47;;
41219;SDS011;26951;47.338;9.196;2023-09-18T00:52:16;6.97;;;2.80;;
41219;SDS011;26951;47.338;9.196;2023-09-18T00:55:02;9.30;;;2.92;;
41219;SDS011;26951;47.338;9.196;2023-09-18T00:57:49;5.75;;;2.47;;
41219;SDS011;26951;47.338;9.196;2023-09-18T01:04:17;8.65;;;3.05;;
41219;SDS011;26951;47.338;9.196;2023-09-18T01:07:01;10.05;;;3.67;;
41219;SDS011;26951;47.338;9.196;2023-09-18T01:09:48;10.68;;;2.90;;
41219;SDS011;26951;47.338;9.196;2023-09-18T01:12:37;9.10;;;2.70;;
41219;SDS011;26951;47.338;9.196;2023-09-18T01:15:30;7.40;;;3.00;;
41219;SDS011;26951;47.338;9.196;2023-09-18T01:18:19;10.70;;;2.60;;
41219;SDS011;26951;47.338;9.196;2023-09-18T01:21:03;10.25;;;4.05;;
41219;SDS011;26951;47.338;9.196;2023-09-18T01:23:47;7.40;;;3.00;;
41219;SDS011;26951;47.338;9.196;2023-09-18T01:26:32;11.70;;;3.50;;
41219;SDS011;26951;47.338;9.196;2023-09-18T01:29:17;12.73;;;3.50;;
41219;SDS011;26951;47.338;9.196;2023-09-18T01:34:47;8.43;;;3.10;;
41219;SDS011;26951;47.338;9.196;2023-09-18T01:37:36;10.70;;;3.47;;
41219;SDS011;26951;47.338;9.196;2023-09-18T01:40:22;7.70;;;2.95;;
41219;SDS011;26951;47.338;9.196;2023-09-18T01:43:08;13.20;;;3.55;;
41219;SDS011;26951;47.338;9.196;2023-09-18T01:45:52;13.20;;;3.83;;
41219;SDS011;26951;47.338;9.196;2023-09-18T01:48:37;12.85;;;3.20;;
41219;SDS011;26951;47.338;9.196;2023-09-18T01:51:21;10.13;;;3.37;;
41219;SDS011;26951;47.338;9.196;2023-09-18T01:54:05;8.63;;;3.85;;
41219;SDS011;26951;47.338;9.196;2023-09-18T01:56:50;9.07;;;3.08;;
41219;SDS011;26951;47.338;9.196;2023-09-18T01:59:34;8.48;;;3.38;;
41219;SDS011;26951;47.338;9.196;2023-09-18T02:02:19;8.50;;;3.13;;
41219;SDS011;26951;47.338;9.196;2023-09-18T02:05:03;6.28;;;2.92;;
41219;SDS011;26951;47.338;9.196;2023-09-18T02:07:48;11.32;;;3.08;;
41219;SDS011;26951;47.338;9.196;2023-09-18T02:10:32;7.72;;;3.15;;
41219;SDS011;26951;47.338;9.196;2023-09-18T02:13:16;16.13;;;3.47;;
41219;SDS011;26951;47.338;9.196;2023-09-18T02:16:01;6.25;;;2.40;;
41219;SDS011;26951;47.338;9.196;2023-09-18T02:18:46;12.02;;;3.63;;
41219;SDS011;26951;47.338;9.196;2023-09-18T02:21:31;11.88;;;3.53;;
41219;SDS011;26951;47.338;9.196;2023-09-18T02:24:15;10.27;;;3.78;;
41219;SDS011;26951;47.338;9.196;2023-09-18T02:27:00;8.57;;;3.08;;
41219;SDS011;26951;47.338;9.196;2023-09-18T02:29:44;14.70;;;3.22;;
41219;SDS011;26951;47.338;9.196;2023-09-18T02:32:28;11.98;;;3.17;;
41219;SDS011;26951;47.338;9.196;2023-09-18T02:35:12;9.13;;;3.28;;
41219;SDS011;26951;47.338;9.196;2023-09-18T02:37:56;7.43;;;3.10;;
41219;SDS011;26951;47.338;9.196;2023-09-18T02:40:41;7.03;;;2.73;;
41219;SDS011;26951;47.338;9.196;2023-09-18T02:43:25;13.80;;;3.53;;
41219;SDS011;26951;47.338;9.196;2023-09-18T02:46:09;13.05;;;3.60;;
41219;SDS011;26951;47.338;9.196;2023-09-18T02:48:53;10.15;;;3.55;;
41219;SDS011;26951;47.338;9.196;2023-09-18T02:51:37;10.85;;;3.10;;
41219;SDS011;26951;47.338;9.196;2023-09-18T02:54:21;10.52;;;3.47;;
41219;SDS011;26951;47.338;9.196;2023-09-18T02:57:05;11.50;;;3.75;;
41219;SDS011;26951;47.338;9.196;2023-09-18T02:59:49;10.73;;;3.20;;
41219;SDS011;26951;47.338;9.196;2023-09-18T03:02:33;7.25;;;3.00;;
41219;SDS011;26951;47.338;9.196;2023-09-18T03:05:19;11.38;;;2.78;;
41219;SDS011;26951;47.338;9.196;2023-09-18T03:08:03;14.85;;;3.50;;
41219;SDS011;26951;47.338;9.196;2023-09-18T03:10:47;11.35;;;3.10;;
41219;SDS011;26951;47.338;9.196;2023-09-18T03:13:31;9.52;;;3.30;;
41219;SDS011;26951;47.338;9.196;2023-09-18T03:16:15;15.15;;;3.28;;
41219;SDS011;26951;47.338;9.196;2023-09-18T03:19:00;11.52;;;3.78;;
41219;SDS011;26951;47.338;9.196;2023-09-18T03:21:44;7.05;;;2.65;;
41219;SDS011;26951;47.338;9.196;2023-09-18T03:24:28;8.55;;;3.10;;
41219;SDS011;26951;47.338;9.196;2023-09-18T03:27:12;7.13;;;3.03;;
41219;SDS011;26951;47.338;9.196;2023-09-18T03:29:57;11.50;;;3.22;;
41219;SDS011;26951;47.338;9.196;2023-09-18T03:32:41;10.57;;;3.38;;
41219;SDS011;26951;47.338;9.196;2023-09-18T03:35:28;9.95;;;3.50;;
41219;SDS011;26951;47.338;9.196;2023-09-18T03:38:12;7.75;;;3.03;;
41219;SDS011;26951;47.338;9.196;2023-09-18T03:40:58;9.27;;;2.97;;
41219;SDS011;26951;47.338;9.196;2023-09-18T03:43:44;6.60;;;2.60;;
41219;SDS011;26951;47.338;9.196;2023-09-18T03:46:28;8.15;;;3.47;;
41219;SDS011;26951;47.338;9.196;2023-09-18T03:49:12;8.93;;;3.38;;
41219;SDS011;26951;47.338;9.196;2023-09-18T03:51:56;6.65;;;2.50;;
41219;SDS011;26951;47.338;9.196;2023-09-18T03:54:40;8.40;;;3.25;;
41219;SDS011;26951;47.338;9.196;2023-09-18T03:57:25;8.85;;;3.08;;
41219;SDS011;26951;47.338;9.196;2023-09-18T04:00:09;11.30;;;3.35;;
41219;SDS011;26951;47.338;9.196;2023-09-18T04:02:55;8.20;;;3.22;;
41219;SDS011;26951;47.338;9.196;2023-09-18T04:05:39;11.13;;;3.45;;
41219;SDS011;26951;47.338;9.196;2023-09-18T04:08:23;9.35;;;3.05;;
41219;SDS011;26951;47.338;9.196;2023-09-18T04:11:09;7.75;;;3.05;;
41219;SDS011;26951;47.338;9.196;2023-09-18T04:13:53;13.10;;;3.50;;
41219;SDS011;26951;47.338;9.196;2023-09-18T04:16:38;11.45;;;3.58;;
41219;SDS011;26951;47.338;9.196;2023-09-18T04:19:25;11.55;;;3.67;;
41219;SDS011;26951;47.338;9.196;2023-09-18T04:22:09;5.35;;;2.92;;
41219;SDS011;26951;47.338;9.196;2023-09-18T04:24:54;7.00;;;2.67;;
41219;SDS011;26951;47.338;9.196;2023-09-18T04:27:38;8.90;;;3.17;;
41219;SDS011;26951;47.338;9.196;2023-09-18T04:30:22;7.22;;;3.20;;
41219;SDS011;26951;47.338;9.196;2023-09-18T04:33:07;9.25;;;3.10;;
41219;SDS011;26951;47.338;9.196;2023-09-18T04:35:51;10.40;;;3.92;;
41219;SDS011;26951;47.338;9.196;2023-09-18T04:38:35;4.25;;;2.92;;
41219;SDS011;26951;47.338;9.196;2023-09-18T04:41:19;7.53;;;2.85;;
41219;SDS011;26951;47.338;9.196;2023-09-18T04:44:03;6.47;;;2.75;;
41219;SDS011;26951;47.338;9.196;2023-09-18T04:46:48;5.40;;;3.00;;
41219;SDS011;26951;47.338;9.196;2023-09-18T04:49:32;7.53;;;2.50;;
41219;SDS011;26951;47.338;9.196;2023-09-18T04:52:17;5.10;;;2.57;;
41219;SDS011;26951;47.338;9.196;2023-09-18T04:55:01;6.55;;;2.78;;
41219;SDS011;26951;47.338;9.196;2023-09-18T04:57:45;10.02;;;3.40;;
41219;SDS011;26951;47.338;9.196;2023-09-18T05:00:29;5.82;;;2.72;;
41219;SDS011;26951;47.338;9.196;2023-09-18T05:03:15;5.95;;;2.78;;
41219;SDS011;26951;47.338;9.196;2023-09-18T05:06:00;9.85;;;3.33;;
41219;SDS011;26951;47.338;9.196;2023-09-18T05:08:45;6.53;;;3.37;;
41219;SDS011;26951;47.338;9.196;2023-09-18T05:11:29;4.60;;;2.63;;
41219;SDS011;26951;47.338;9.196;2023-09-18T05:14:13;4.30;;;2.70;;
41219;SDS011;26951;47.338;9.196;2023-09-18T05:16:59;5.55;;;2.90;;
41219;SDS011;26951;47.338;9.196;2023-09-18T05:19:44;5.43;;;3.65;;
41219;SDS011;26951;47.338;9.196;2023-09-18T05:22:28;6.93;;;3.07;;
41219;SDS011;26951;47.338;9.196;2023-09-18T05:25:13;5.95;;;2.80;;
41219;SDS011;26951;47.338;9.196;2023-09-18T05:28:00;7.40;;;3.22;;
41219;SDS011;26951;47.338;9.196;2023-09-18T05:30:45;7.53;;;3.15;;
41219;SDS011;26951;47.338;9.196;2023-09-18T05:33:29;7.40;;;3.35;;
41219;SDS011;26951;47.338;9.196;2023-09-18T05:36:13;8.98;;;3.28;;
41219;SDS011;26951;47.338;9.196;2023-09-18T05:38:58;9.45;;;2.90;;
41219;SDS011;26951;47.338;9.196;2023-09-18T05:41:42;7.95;;;3.22;;
41219;SDS011;26951;47.338;9.196;2023-09-18T05:44:26;4.03;;;2.50;;
41219;SDS011;26951;47.338;9.196;2023-09-18T05:47:10;7.53;;;2.78;;
41219;SDS011;26951;47.338;9.196;2023-09-18T05:49:55;6.60;;;2.58;;
41219;SDS011;26951;47.338;9.196;2023-09-18T05:52:39;5.90;;;2.97;;
41219;SDS011;26951;47.338;9.196;2023-09-18T05:55:23;7.05;;;3.38;;
41219;SDS011;26951;47.338;9.196;2023-09-18T05:58:07;5.50;;;3.55;;
41219;SDS011;26951;47.338;9.196;2023-09-18T06:00:51;5.30;;;2.93;;
41219;SDS011;26951;47.338;9.196;2023-09-18T06:03:35;6.10;;;3.30;;
41219;SDS011;26951;47.338;9.196;2023-09-18T06:06:20;7.93;;;3.60;;
41219;SDS011;26951;47.338;9.196;2023-09-18T06:09:04;6.97;;;3.28;;
41219;SDS011;26951;47.338;9.196;2023-09-18T06:11:48;12.27;;;3.53;;
41219;SDS011;26951;47.338;9.196;2023-09-18T06:14:32;7.18;;;3.53;;
41219;SDS011;26951;47.338;9.196;2023-09-18T06:17:21;3.45;;;2.78;;
41219;SDS011;26951;47.338;9.196;2023-09-18T06:20:06;5.80;;;3.20;;
41219;SDS011;26951;47.338;9.196;2023-09-18T06:22:53;7.03;;;3.10;;
41219;SDS011;26951;47.338;9.196;2023-09-18T06:25:37;8.57;;;3.58;;
41219;SDS011;26951;47.338;9.196;2023-09-18T06:28:22;5.20;;;3.23;;
41219;SDS011;26951;47.338;9.196;2023-09-18T06:31:06;4.90;;;3.58;;
41219;SDS011;26951;47.338;9.196;2023-09-18T06:33:51;5.25;;;3.17;;
41219;SDS011;26951;47.338;9.196;2023-09-18T06:36:35;4.40;;;2.67;;
41219;SDS011;26951;47.338;9.196;2023-09-18T06:39:21;5.72;;;3.13;;
41219;SDS011;26951;47.338;9.196;2023-09-18T06:42:07;4.07;;;2.60;;
41219;SDS011;26951;47.338;9.196;2023-09-18T06:44:51;5.13;;;2.70;;
41219;SDS011;26951;47.338;9.196;2023-09-18T06:47:37;6.28;;;3.35;;
41219;SDS011;26951;47.338;9.196;2023-09-18T06:50:24;6.20;;;3.00;;
41219;SDS011;26951;47.338;9.196;2023-09-18T06:53:08;4.75;;;2.42;;
41219;SDS011;26951;47.338;9.196;2023-09-18T06:55:53;11.52;;;6.15;;
41219;SDS011;26951;47.338;9.196;2023-09-18T06:58:38;6.88;;;4.43;;
41219;SDS011;26951;47.338;9.196;2023-09-18T07:01:22;5.60;;;3.40;;
41219;SDS011;26951;47.338;9.196;2023-09-18T07:04:08;6.78;;;3.03;;
41219;SDS011;26951;47.338;9.196;2023-09-18T07:06:52;7.78;;;3.70;;
41219;SDS011;26951;47.338;9.196;2023-09-18T07:09:37;4.75;;;2.80;;
41219;SDS011;26951;47.338;9.196;2023-09-18T07:12:21;7.00;;;2.90;;
41219;SDS011;26951;47.338;9.196;2023-09-18T07:15:06;7.15;;;2.90;;
41219;SDS011;26951;47.338;9.196;2023-09-18T07:17:52;6.13;;;2.67;;
41219;SDS011;26951;47.338;9.196;2023-09-18T07:20:36;10.77;;;4.88;;
41219;SDS011;26951;47.338;9.196;2023-09-18T07:23:20;7.28;;;3.45;;
41219;SDS011;26951;47.338;9.196;2023-09-18T07:26:04;5.88;;;3.28;;
41219;SDS011;26951;47.338;9.196;2023-09-18T07:28:49;4.47;;;2.90;;
41219;SDS011;26951;47.338;9.196;2023-09-18T07:31:33;6.88;;;2.90;;
41219;SDS011;26951;47.338;9.196;2023-09-18T07:34:19;9.10;;;4.57;;
41219;SDS011;26951;47.338;9.196;2023-09-18T07:37:03;10.13;;;4.88;;
41219;SDS011;26951;47.338;9.196;2023-09-18T07:39:48;5.45;;;2.75;;
41219;SDS011;26951;47.338;9.196;2023-09-18T07:42:32;6.05;;;3.63;;
41219;SDS011;26951;47.338;9.196;2023-09-18T07:45:17;5.03;;;3.20;;
41219;SDS011;26951;47.338;9.196;2023-09-18T07:48:02;4.32;;;2.25;;
41219;SDS011;26951;47.338;9.196;2023-09-18T07:50:46;5.75;;;3.10;;
41219;SDS011;26951;47.338;9.196;2023-09-18T07:53:32;6.47;;;2.90;;
41219;SDS011;26951;47.338;9.196;2023-09-18T07:56:17;7.20;;;2.55;;
41219;SDS011;26951;47.338;9.196;2023-09-18T07:59:02;9.10;;;4.07;;
41219;SDS011;26951;47.338;9.196;2023-09-18T08:01:48;6.07;;;2.95;;
41219;SDS011;26951;47.338;9.196;2023-09-18T08:04:33;7.78;;;2.78;;
41219;SDS011;26951;47.338;9.196;2023-09-18T08:07:17;6.95;;;2.78;;
41219;SDS011;26951;47.338;9.196;2023-09-18T08:10:03;7.47;;;2.58;;
41219;SDS011;26951;47.338;9.196;2023-09-18T08:12:52;7.95;;;3.95;;
41219;SDS011;26951;47.338;9.196;2023-09-18T08:15:36;7.32;;;3.47;;
41219;SDS011;26951;47.338;9.196;2023-09-18T08:18:21;8.48;;;3.55;;
41219;SDS011;26951;47.338;9.196;2023-09-18T08:21:05;8.18;;;3.08;;
41219;SDS011;26951;47.338;9.196;2023-09-18T08:23:49;7.93;;;2.97;;
41219;SDS011;26951;47.338;9.196;2023-09-18T08:26:33;9.98;;;3.75;;
41219;SDS011;26951;47.338;9.196;2023-09-18T08:29:17;9.25;;;3.33;;
41219;SDS011;26951;47.338;9.196;2023-09-18T08:32:01;6.20;;;3.20;;
41219;SDS011;26951;47.338;9.196;2023-09-18T08:34:45;7.65;;;3.35;;
41219;SDS011;26951;47.338;9.196;2023-09-18T08:37:30;5.72;;;2.67;;
41219;SDS011;26951;47.338;9.196;2023-09-18T08:40:14;7.95;;;2.88;;
41219;SDS011;26951;47.338;9.196;2023-09-18T08:42:58;6.63;;;2.28;;
41219;SDS011;26951;47.338;9.196;2023-09-18T08:45:54;4.93;;;2.15;;
41219;SDS011;26951;47.338;9.196;2023-09-18T08:48:44;6.63;;;2.20;;
41219;SDS011;26951;47.338;9.196;2023-09-18T08:51:29;5.45;;;2.05;;
41219;SDS011;26951;47.338;9.196;2023-09-18T08:54:14;4.97;;;2.40;;
41219;SDS011;26951;47.338;9.196;2023-09-18T08:56:59;4.57;;;2.25;;
41219;SDS011;26951;47.338;9.196;2023-09-18T08:59:44;6.03;;;2.70;;
41219;SDS011;26951;47.338;9.196;2023-09-18T09:02:29;6.05;;;2.40;;
41219;SDS011;26951;47.338;9.196;2023-09-18T09:05:14;2.90;;;2.15;;
41219;SDS011;26951;47.338;9.196;2023-09-18T09:07:58;3.65;;;2.38;;
41219;SDS011;26951;47.338;9.196;2023-09-18T09:10:43;10.75;;;2.90;;
41219;SDS011;26951;47.338;9.196;2023-09-18T09:13:27;5.60;;;2.58;;
41219;SDS011;26951;47.338;9.196;2023-09-18T09:16:12;3.63;;;2.53;;
41219;SDS011;26951;47.338;9.196;2023-09-18T09:21:42;3.25;;;1.83;;
41219;SDS011;26951;47.338;9.196;2023-09-18T09:24:37;3.75;;;1.98;;
41219;SDS011;26951;47.338;9.196;2023-09-18T09:27:25;5.22;;;3.03;;
41219;SDS011;26951;47.338;9.196;2023-09-18T09:30:09;2.35;;;1.70;;
41219;SDS011;26951;47.338;9.196;2023-09-18T09:32:54;5.57;;;2.00;;
41219;SDS011;26951;47.338;9.196;2023-09-18T09:35:40;2.40;;;1.80;;
41219;SDS011;26951;47.338;9.196;2023-09-18T09:38:28;1.80;;;1.40;;
41219;SDS011;26951;47.338;9.196;2023-09-18T09:41:17;3.65;;;1.73;;
41219;SDS011;26951;47.338;9.196;2023-09-18T09:44:01;1.88;;;1.25;;
41219;SDS011;26951;47.338;9.196;2023-09-18T09:46:48;2.72;;;1.23;;
41219;SDS011;26951;47.338;9.196;2023-09-18T09:49:44;2.47;;;1.38;;
41219;SDS011;26951;47.338;9.196;2023-09-18T09:52:30;1.98;;;1.30;;
41219;SDS011;26951;47.338;9.196;2023-09-18T09:58:14;1.20;;;1.10;;
41219;SDS011;26951;47.338;9.196;2023-09-18T10:00:58;1.25;;;1.10;;
41219;SDS011;26951;47.338;9.196;2023-09-18T10:03:49;1.58;;;1.20;;
41219;SDS011;26951;47.338;9.196;2023-09-18T10:06:34;3.00;;;1.08;;
41219;SDS011;26951;47.338;9.196;2023-09-18T10:09:20;2.33;;;0.75;;
41219;SDS011;26951;47.338;9.196;2023-09-18T10:12:08;2.72;;;1.05;;
41219;SDS011;26951;47.338;9.196;2023-09-18T10:14:55;1.67;;;0.70;;
41219;SDS011;26951;47.338;9.196;2023-09-18T10:17:42;1.70;;;0.80;;
41219;SDS011;26951;47.338;9.196;2023-09-18T10:20:32;2.05;;;0.77;;
41219;SDS011;26951;47.338;9.196;2023-09-18T10:23:26;1.05;;;0.80;;
41219;SDS011;26951;47.338;9.196;2023-09-18T10:26:23;1.00;;;0.90;;
41219;SDS011;26951;47.338;9.196;2023-09-18T10:29:09;4.50;;;0.88;;
41219;SDS011;26951;47.338;9.196;2023-09-18T10:31:56;1.13;;;0.90;;
41219;SDS011;26951;47.338;9.196;2023-09-18T10:34:41;1.30;;;0.70;;
41219;SDS011;26951;47.338;9.196;2023-09-18T10:37:26;1.52;;;1.00;;
41219;SDS011;26951;47.338;9.196;2023-09-18T10:40:14;0.60;;;0.60;;
41219;SDS011;26951;47.338;9.196;2023-09-18T10:42:59;0.82;;;0.60;;
41219;SDS011;26951;47.338;9.196;2023-09-18T10:45:47;1.25;;;1.15;;
41219;SDS011;26951;47.338;9.196;2023-09-18T10:48:35;0.63;;;0.57;;
41219;SDS011;26951;47.338;9.196;2023-09-18T10:51:23;1.85;;;0.68;;
41219;SDS011;26951;47.338;9.196;2023-09-18T10:54:08;2.35;;;0.82;;
41219;SDS011;26951;47.338;9.196;2023-09-18T10:56:53;0.85;;;0.60;;
41219;SDS011;26951;47.338;9.196;2023-09-18T10:59:46;0.93;;;0.80;;
41219;SDS011;26951;47.338;9.196;2023-09-18T11:02:30;1.08;;;0.88;;
41219;SDS011;26951;47.338;9.196;2023-09-18T11:05:25;1.02;;;0.82;;
41219;SDS011;26951;47.338;9.196;2023-09-18T11:08:30;4.28;;;1.17;;
41219;SDS011;26951;47.338;9.196;2023-09-18T11:11:18;0.88;;;0.80;;
41219;SDS011;26951;47.338;9.196;2023-09-18T11:14:04;1.42;;;1.00;;
41219;SDS011;26951;47.338;9.196;2023-09-18T11:16:54;1.95;;;0.82;;
41219;SDS011;26951;47.338;9.196;2023-09-18T11:19:40;1.13;;;0.75;;
41219;SDS011;26951;47.338;9.196;2023-09-18T11:22:25;1.50;;;1.00;;
41219;SDS011;26951;47.338;9.196;2023-09-18T11:25:30;1.02;;;0.75;;
41219;SDS011;26951;47.338;9.196;2023-09-18T11:28:15;1.20;;;1.10;;
41219;SDS011;26951;47.338;9.196;2023-09-18T11:31:06;0.90;;;0.85;;
41219;SDS011;26951;47.338;9.196;2023-09-18T11:33:51;1.20;;;0.90;;
41219;SDS011;26951;47.338;9.196;2023-09-18T11:36:36;1.98;;;0.80;;
41219;SDS011;26951;47.338;9.196;2023-09-18T11:39:37;0.98;;;0.80;;
41219;SDS011;26951;47.338;9.196;2023-09-18T11:42:22;1.10;;;0.90;;
41219;SDS011;26951;47.338;9.196;2023-09-18T11:45:06;1.70;;;0.90;;
41219;SDS011;26951;47.338;9.196;2023-09-18T11:48:00;0.80;;;0.77;;
41219;SDS011;26951;47.338;9.196;2023-09-18T11:50:45;1.37;;;1.03;;
41219;SDS011;26951;47.338;9.196;2023-09-18T11:53:34;1.10;;;0.90;;
41219;SDS011;26951;47.338;9.196;2023-09-18T11:56:21;2.78;;;1.30;;
41219;SDS011;26951;47.338;9.196;2023-09-18T11:59:05;1.42;;;0.90;;
41219;SDS011;26951;47.338;9.196;2023-09-18T12:01:53;1.75;;;1.40;;
41219;SDS011;26951;47.338;9.196;2023-09-18T12:04:44;1.92;;;1.20;;
41219;SDS011;26951;47.338;9.196;2023-09-18T12:07:29;0.93;;;0.88;;
41219;SDS011;26951;47.338;9.196;2023-09-18T12:10:15;1.77;;;1.10;;
41219;SDS011;26951;47.338;9.196;2023-09-18T12:13:02;1.58;;;1.13;;
41219;SDS011;26951;47.338;9.196;2023-09-18T12:16:01;0.80;;;0.80;;
41219;SDS011;26951;47.338;9.196;2023-09-18T12:18:50;2.05;;;0.98;;
41219;SDS011;26951;47.338;9.196;2023-09-18T12:21:40;1.50;;;1.40;;
41219;SDS011;26951;47.338;9.196;2023-09-18T12:24:30;1.45;;;1.05;;
41219;SDS011;26951;47.338;9.196;2023-09-18T12:27:15;2.40;;;0.95;;
41219;SDS011;26951;47.338;9.196;2023-09-18T12:29:59;1.23;;;1.10;;
41219;SDS011;26951;47.338;9.196;2023-09-18T12:32:44;1.13;;;1.02;;
41219;SDS011;26951;47.338;9.196;2023-09-18T12:35:29;1.10;;;1.00;;
41219;SDS011;26951;47.338;9.196;2023-09-18T12:38:14;2.15;;;1.10;;
41219;SDS011;26951;47.338;9.196;2023-09-18T12:41:00;2.03;;;0.93;;
41219;SDS011;26951;47.338;9.196;2023-09-18T12:43:52;1.80;;;1.20;;
41219;SDS011;26951;47.338;9.196;2023-09-18T12:49:25;1.70;;;1.20;;
41219;SDS011;26951;47.338;9.196;2023-09-18T12:52:21;1.50;;;1.05;;
41219;SDS011;26951;47.338;9.196;2023-09-18T12:55:06;2.35;;;1.38;;
41219;SDS011;26951;47.338;9.196;2023-09-18T12:57:51;1.35;;;1.10;;
41219;SDS011;26951;47.338;9.196;2023-09-18T13:00:36;1.20;;;0.98;;
41219;SDS011;26951;47.338;9.196;2023-09-18T13:03:21;1.47;;;0.90;;
41219;SDS011;26951;47.338;9.196;2023-09-18T13:08:51;0.98;;;0.80;;
41219;SDS011;26951;47.338;9.196;2023-09-18T13:11:51;2.00;;;1.00;;
41219;SDS011;26951;47.338;9.196;2023-09-18T13:18:16;2.00;;;1.20;;
41219;SDS011;26951;47.338;9.196;2023-09-18T13:21:08;1.00;;;0.90;;
41219;SDS011;26951;47.338;9.196;2023-09-18T13:23:54;2.05;;;0.85;;
41219;SDS011;26951;47.338;9.196;2023-09-18T13:26:38;1.50;;;0.90;;
41219;SDS011;26951;47.338;9.196;2023-09-18T13:29:23;2.85;;;1.00;;
41219;SDS011;26951;47.338;9.196;2023-09-18T13:32:08;1.25;;;1.00;;
41219;SDS011;26951;47.338;9.196;2023-09-18T13:34:52;2.60;;;1.25;;
41219;SDS011;26951;47.338;9.196;2023-09-18T13:37:37;1.75;;;1.10;;
41219;SDS011;26951;47.338;9.196;2023-09-18T13:40:22;1.38;;;0.90;;
41219;SDS011;26951;47.338;9.196;2023-09-18T13:43:06;1.85;;;1.10;;
41219;SDS011;26951;47.338;9.196;2023-09-18T13:45:52;2.33;;;1.20;;
41219;SDS011;26951;47.338;9.196;2023-09-18T13:48:37;2.22;;;1.13;;
41219;SDS011;26951;47.338;9.196;2023-09-18T13:51:22;1.67;;;1.00;;
41219;SDS011;26951;47.338;9.196;2023-09-18T13:54:07;1.20;;;1.10;;
41219;SDS011;26951;47.338;9.196;2023-09-18T13:56:51;1.15;;;1.02;;
41219;SDS011;26951;47.338;9.196;2023-09-18T13:59:35;3.63;;;1.57;;
41219;SDS011;26951;47.338;9.196;2023-09-18T14:02:21;2.05;;;1.33;;
41219;SDS011;26951;47.338;9.196;2023-09-18T14:05:07;1.65;;;1.00;;
41219;SDS011;26951;47.338;9.196;2023-09-18T14:07:52;1.60;;;1.10;;
41219;SDS011;26951;47.338;9.196;2023-09-18T14:10:43;1.98;;;1.10;;
41219;SDS011;26951;47.338;9.196;2023-09-18T14:13:27;3.00;;;1.40;;
41219;SDS011;26951;47.338;9.196;2023-09-18T14:16:12;3.67;;;1.30;;
41219;SDS011;26951;47.338;9.196;2023-09-18T14:18:58;1.27;;;0.93;;
41219;SDS011;26951;47.338;9.196;2023-09-18T14:21:43;1.60;;;1.30;;
41219;SDS011;26951;47.338;9.196;2023-09-18T14:24:28;1.60;;;1.27;;
41219;SDS011;26951;47.338;9.196;2023-09-18T14:27:13;3.63;;;1.50;;
41219;SDS011;26951;47.338;9.196;2023-09-18T14:29:57;3.95;;;1.30;;
41219;SDS011;26951;47.338;9.196;2023-09-18T14:32:41;2.15;;;1.83;;
41219;SDS011;26951;47.338;9.196;2023-09-18T14:35:26;1.17;;;0.90;;
41219;SDS011;26951;47.338;9.196;2023-09-18T14:38:10;1.60;;;1.20;;
41219;SDS011;26951;47.338;9.196;2023-09-18T14:40:55;1.95;;;1.35;;
41219;SDS011;26951;47.338;9.196;2023-09-18T14:43:45;2.33;;;1.30;;
41219;SDS011;26951;47.338;9.196;2023-09-18T14:46:29;1.17;;;1.00;;
41219;SDS011;26951;47.338;9.196;2023-09-18T14:49:16;2.20;;;1.20;;
41219;SDS011;26951;47.338;9.196;2023-09-18T14:52:01;2.57;;;1.10;;
41219;SDS011;26951;47.338;9.196;2023-09-18T14:54:45;1.05;;;0.95;;
41219;SDS011;26951;47.338;9.196;2023-09-18T14:57:30;2.03;;;1.57;;
41219;SDS011;26951;47.338;9.196;2023-09-18T15:00:14;4.75;;;1.50;;
41219;SDS011;26951;47.338;9.196;2023-09-18T15:02:58;2.17;;;1.50;;
41219;SDS011;26951;47.338;9.196;2023-09-18T15:05:43;2.22;;;1.20;;
41219;SDS011;26951;47.338;9.196;2023-09-18T15:08:27;2.13;;;1.17;;
41219;SDS011;26951;47.338;9.196;2023-09-18T15:11:11;2.47;;;1.40;;
41219;SDS011;26951;47.338;9.196;2023-09-18T15:13:56;2.60;;;1.40;;
41219;SDS011;26951;47.338;9.196;2023-09-18T15:16:40;2.03;;;1.60;;
41219;SDS011;26951;47.338;9.196;2023-09-18T15:19:24;2.30;;;1.60;;
41219;SDS011;26951;47.338;9.196;2023-09-18T15:22:08;2.75;;;1.38;;
41219;SDS011;26951;47.338;9.196;2023-09-18T15:27:38;3.60;;;1.70;;
41219;SDS011;26951;47.338;9.196;2023-09-18T15:30:22;2.30;;;1.35;;
41219;SDS011;26951;47.338;9.196;2023-09-18T15:33:08;3.40;;;1.30;;
41219;SDS011;26951;47.338;9.196;2023-09-18T15:35:52;2.15;;;1.45;;
41219;SDS011;26951;47.338;9.196;2023-09-18T15:38:37;4.00;;;1.30;;
41219;SDS011;26951;47.338;9.196;2023-09-18T15:41:21;3.53;;;1.90;;
41219;SDS011;26951;47.338;9.196;2023-09-18T15:44:05;3.58;;;1.40;;
41219;SDS011;26951;47.338;9.196;2023-09-18T15:46:50;3.10;;;1.50;;
41219;SDS011;26951;47.338;9.196;2023-09-18T15:49:34;2.50;;;1.65;;
41219;SDS011;26951;47.338;9.196;2023-09-18T15:52:19;1.93;;;1.40;;
41219;SDS011;26951;47.338;9.196;2023-09-18T15:55:04;1.45;;;1.10;;
41219;SDS011;26951;47.338;9.196;2023-09-18T15:57:48;1.70;;;1.10;;
41219;SDS011;26951;47.338;9.196;2023-09-18T16:00:33;2.05;;;1.00;;
41219;SDS011;26951;47.338;9.196;2023-09-18T16:03:17;1.42;;;1.20;;
41219;SDS011;26951;47.338;9.196;2023-09-18T16:06:03;1.38;;;1.05;;
41219;SDS011;26951;47.338;9.196;2023-09-18T16:08:48;1.70;;;1.40;;
41219;SDS011;26951;47.338;9.196;2023-09-18T16:11:32;2.47;;;1.33;;
41219;SDS011;26951;47.338;9.196;2023-09-18T16:14:16;1.92;;;1.48;;
41219;SDS011;26951;47.338;9.196;2023-09-18T16:17:03;2.78;;;1.30;;
41219;SDS011;26951;47.338;9.196;2023-09-18T16:19:47;2.42;;;1.20;;
41219;SDS011;26951;47.338;9.196;2023-09-18T16:22:31;1.70;;;1.17;;
41219;SDS011;26951;47.338;9.196;2023-09-18T16:25:16;1.83;;;1.00;;
41219;SDS011;26951;47.338;9.196;2023-09-18T16:28:00;2.47;;;1.05;;
41219;SDS011;26951;47.338;9.196;2023-09-18T16:30:45;2.13;;;1.48;;
41219;SDS011;26951;47.338;9.196;2023-09-18T16:33:29;2.20;;;0.98;;
41219;SDS011;26951;47.338;9.196;2023-09-18T16:36:14;2.20;;;1.10;;
41219;SDS011;26951;47.338;9.196;2023-09-18T16:38:58;1.73;;;1.10;;
41219;SDS011;26951;47.338;9.196;2023-09-18T16:41:43;1.48;;;1.27;;
41219;SDS011;26951;47.338;9.196;2023-09-18T16:44:27;1.13;;;0.90;;
41219;SDS011;26951;47.338;9.196;2023-09-18T16:47:11;1.20;;;1.02;;
41219;SDS011;26951;47.338;9.196;2023-09-18T16:49:55;1.13;;;1.00;;
41219;SDS011;26951;47.338;9.196;2023-09-18T16:52:39;1.40;;;0.90;;
41219;SDS011;26951;47.338;9.196;2023-09-18T16:55:29;2.70;;;0.93;;
41219;SDS011;26951;47.338;9.196;2023-09-18T16:58:13;1.00;;;0.90;;